Cottonwood, Idaho
Current Conditions -  °F | °C
As of 11:55 PM on Saturday 25 Oct 2014 (Local Time) from KGIC Reporting Station
Scattered Clouds Scattered Clouds  
Wind Chill: 55°   Ceiling: Unl
Heat Index: 55°   Visibility: 10mi
Dew Point: 36°   Wind: 13mph
Humidity: 49%   Direction: 240°WSW
Pressure: 29.79"   Gusts: 24mph
Location:  46.05°N, 116.35°W
Report Text: KGIC 260655Z AUTO 24011G21KT 10SM SCT065 SCT075 SCT120 13/02 A2979 RMK AO1 T01280024 403111008
Loading
Personal Weather Stations






























Interactive Weather Map New forecast layout! Learn more

10-Day Weather Forecast

Advertisements
Track Severe Weather on mobile